sensor_id;sensor_type;location;lat;lon;timestamp;P1;durP1;ratioP1;P2;durP2;ratioP2
15408;SDS011;7803;48.130;13.788;2024-02-26T00:01:04;14.45;;;13.05;;
15408;SDS011;7803;48.130;13.788;2024-02-26T00:04:06;14.30;;;12.90;;
15408;SDS011;7803;48.130;13.788;2024-02-26T00:07:10;13.82;;;12.52;;
15408;SDS011;7803;48.130;13.788;2024-02-26T00:10:12;13.57;;;12.25;;
15408;SDS011;7803;48.130;13.788;2024-02-26T00:13:14;14.45;;;13.10;;
15408;SDS011;7803;48.130;13.788;2024-02-26T00:16:18;14.18;;;12.82;;
15408;SDS011;7803;48.130;13.788;2024-02-26T00:19:20;14.00;;;12.63;;
15408;SDS011;7803;48.130;13.788;2024-02-26T00:22:22;14.05;;;12.65;;
15408;SDS011;7803;48.130;13.788;2024-02-26T00:25:24;14.30;;;12.95;;
15408;SDS011;7803;48.130;13.788;2024-02-26T00:28:25;13.73;;;12.35;;
15408;SDS011;7803;48.130;13.788;2024-02-26T00:31:30;14.00;;;12.60;;
15408;SDS011;7803;48.130;13.788;2024-02-26T00:34:32;13.93;;;12.52;;
15408;SDS011;7803;48.130;13.788;2024-02-26T00:37:34;14.32;;;12.82;;
15408;SDS011;7803;48.130;13.788;2024-02-26T00:40:36;13.68;;;12.38;;
15408;SDS011;7803;48.130;13.788;2024-02-26T00:43:38;13.25;;;12.05;;
15408;SDS011;7803;48.130;13.788;2024-02-26T00:46:44;13.52;;;12.23;;
15408;SDS011;7803;48.130;13.788;2024-02-26T00:49:46;13.40;;;12.10;;
15408;SDS011;7803;48.130;13.788;2024-02-26T00:52:48;12.68;;;11.48;;
15408;SDS011;7803;48.130;13.788;2024-02-26T00:55:49;12.77;;;11.57;;
15408;SDS011;7803;48.130;13.788;2024-02-26T00:58:51;13.20;;;12.00;;
15408;SDS011;7803;48.130;13.788;2024-02-26T01:01:55;13.50;;;12.20;;
15408;SDS011;7803;48.130;13.788;2024-02-26T01:04:58;12.35;;;11.07;;
15408;SDS011;7803;48.130;13.788;2024-02-26T01:08:00;12.75;;;11.52;;
15408;SDS011;7803;48.130;13.788;2024-02-26T01:11:02;12.55;;;11.35;;
15408;SDS011;7803;48.130;13.788;2024-02-26T01:14:04;11.93;;;10.80;;
15408;SDS011;7803;48.130;13.788;2024-02-26T01:17:08;12.75;;;11.48;;
15408;SDS011;7803;48.130;13.788;2024-02-26T01:20:10;12.23;;;11.02;;
15408;SDS011;7803;48.130;13.788;2024-02-26T01:23:12;12.00;;;10.80;;
15408;SDS011;7803;48.130;13.788;2024-02-26T01:26:14;12.32;;;11.13;;
15408;SDS011;7803;48.130;13.788;2024-02-26T01:29:16;12.20;;;10.95;;
15408;SDS011;7803;48.130;13.788;2024-02-26T01:32:19;12.00;;;10.80;;
15408;SDS011;7803;48.130;13.788;2024-02-26T01:35:21;11.55;;;10.45;;
15408;SDS011;7803;48.130;13.788;2024-02-26T01:38:23;12.27;;;11.07;;
15408;SDS011;7803;48.130;13.788;2024-02-26T01:41:25;11.70;;;10.60;;
15408;SDS011;7803;48.130;13.788;2024-02-26T01:44:27;11.38;;;10.27;;
15408;SDS011;7803;48.130;13.788;2024-02-26T01:47:30;11.73;;;10.63;;
15408;SDS011;7803;48.130;13.788;2024-02-26T01:50:32;11.13;;;10.02;;
15408;SDS011;7803;48.130;13.788;2024-02-26T01:53:37;11.10;;;10.02;;
15408;SDS011;7803;48.130;13.788;2024-02-26T01:56:40;11.15;;;10.05;;
15408;SDS011;7803;48.130;13.788;2024-02-26T01:59:42;10.70;;;9.63;;
15408;SDS011;7803;48.130;13.788;2024-02-26T02:02:46;11.15;;;10.07;;
15408;SDS011;7803;48.130;13.788;2024-02-26T02:05:48;11.50;;;10.40;;
15408;SDS011;7803;48.130;13.788;2024-02-26T02:08:50;10.73;;;9.70;;
15408;SDS011;7803;48.130;13.788;2024-02-26T02:11:52;10.40;;;9.40;;
15408;SDS011;7803;48.130;13.788;2024-02-26T02:14:55;10.82;;;9.73;;
15408;SDS011;7803;48.130;13.788;2024-02-26T02:17:58;10.90;;;9.90;;
15408;SDS011;7803;48.130;13.788;2024-02-26T02:21:02;10.73;;;9.73;;
15408;SDS011;7803;48.130;13.788;2024-02-26T02:24:04;9.50;;;8.60;;
15408;SDS011;7803;48.130;13.788;2024-02-26T02:27:06;10.43;;;9.43;;
15408;SDS011;7803;48.130;13.788;2024-02-26T02:30:09;10.32;;;9.32;;
15408;SDS011;7803;48.130;13.788;2024-02-26T02:33:11;10.13;;;9.13;;
15408;SDS011;7803;48.130;13.788;2024-02-26T02:36:16;9.57;;;8.70;;
15408;SDS011;7803;48.130;13.788;2024-02-26T02:39:19;9.65;;;8.75;;
15408;SDS011;7803;48.130;13.788;2024-02-26T02:42:22;9.05;;;8.23;;
15408;SDS011;7803;48.130;13.788;2024-02-26T02:45:24;9.50;;;8.60;;
15408;SDS011;7803;48.130;13.788;2024-02-26T02:48:26;9.45;;;8.55;;
15408;SDS011;7803;48.130;13.788;2024-02-26T02:51:29;9.45;;;8.55;;
15408;SDS011;7803;48.130;13.788;2024-02-26T02:54:31;9.02;;;8.13;;
15408;SDS011;7803;48.130;13.788;2024-02-26T02:57:33;9.30;;;8.40;;
15408;SDS011;7803;48.130;13.788;2024-02-26T03:00:41;9.48;;;8.57;;
15408;SDS011;7803;48.130;13.788;2024-02-26T03:03:42;9.27;;;8.38;;
15408;SDS011;7803;48.130;13.788;2024-02-26T03:06:46;8.98;;;8.18;;
15408;SDS011;7803;48.130;13.788;2024-02-26T03:09:48;8.50;;;7.70;;
15408;SDS011;7803;48.130;13.788;2024-02-26T03:12:50;8.93;;;8.02;;
15408;SDS011;7803;48.130;13.788;2024-02-26T03:15:52;8.32;;;7.53;;
15408;SDS011;7803;48.130;13.788;2024-02-26T03:18:54;8.20;;;7.40;;
15408;SDS011;7803;48.130;13.788;2024-02-26T03:21:57;8.30;;;7.50;;
15408;SDS011;7803;48.130;13.788;2024-02-26T03:24:59;8.07;;;7.35;;
15408;SDS011;7803;48.130;13.788;2024-02-26T03:28:01;7.55;;;6.85;;
15408;SDS011;7803;48.130;13.788;2024-02-26T03:31:03;8.15;;;7.35;;
15408;SDS011;7803;48.130;13.788;2024-02-26T03:34:05;8.05;;;7.25;;
15408;SDS011;7803;48.130;13.788;2024-02-26T03:37:08;7.88;;;7.05;;
15408;SDS011;7803;48.130;13.788;2024-02-26T03:40:11;7.63;;;6.88;;
15408;SDS011;7803;48.130;13.788;2024-02-26T03:43:14;8.05;;;7.28;;
15408;SDS011;7803;48.130;13.788;2024-02-26T03:46:16;8.18;;;7.38;;
15408;SDS011;7803;48.130;13.788;2024-02-26T03:49:18;7.72;;;7.03;;
15408;SDS011;7803;48.130;13.788;2024-02-26T03:52:21;7.97;;;7.18;;
15408;SDS011;7803;48.130;13.788;2024-02-26T03:55:23;7.07;;;6.40;;
15408;SDS011;7803;48.130;13.788;2024-02-26T03:58:25;6.60;;;6.00;;
15408;SDS011;7803;48.130;13.788;2024-02-26T04:01:27;7.57;;;6.80;;
15408;SDS011;7803;48.130;13.788;2024-02-26T04:04:29;7.43;;;6.72;;
15408;SDS011;7803;48.130;13.788;2024-02-26T04:07:36;7.13;;;6.43;;
15408;SDS011;7803;48.130;13.788;2024-02-26T04:10:38;6.90;;;6.20;;
15408;SDS011;7803;48.130;13.788;2024-02-26T04:13:40;7.00;;;6.30;;
15408;SDS011;7803;48.130;13.788;2024-02-26T04:16:45;6.93;;;6.28;;
15408;SDS011;7803;48.130;13.788;2024-02-26T04:19:51;6.45;;;5.85;;
15408;SDS011;7803;48.130;13.788;2024-02-26T04:22:54;6.47;;;5.80;;
15408;SDS011;7803;48.130;13.788;2024-02-26T04:25:56;6.32;;;5.72;;
15408;SDS011;7803;48.130;13.788;2024-02-26T04:28:58;6.07;;;5.57;;
15408;SDS011;7803;48.130;13.788;2024-02-26T04:32:00;5.68;;;5.18;;
15408;SDS011;7803;48.130;13.788;2024-02-26T04:35:02;6.18;;;5.60;;
15408;SDS011;7803;48.130;13.788;2024-02-26T04:38:06;6.15;;;5.55;;
15408;SDS011;7803;48.130;13.788;2024-02-26T04:41:08;6.05;;;5.47;;
15408;SDS011;7803;48.130;13.788;2024-02-26T04:44:10;6.10;;;5.50;;
15408;SDS011;7803;48.130;13.788;2024-02-26T04:47:12;6.00;;;5.50;;
15408;SDS011;7803;48.130;13.788;2024-02-26T04:50:14;6.05;;;5.45;;
15408;SDS011;7803;48.130;13.788;2024-02-26T04:53:18;6.32;;;5.72;;
15408;SDS011;7803;48.130;13.788;2024-02-26T04:56:20;6.18;;;5.57;;
15408;SDS011;7803;48.130;13.788;2024-02-26T04:59:22;6.40;;;5.82;;
15408;SDS011;7803;48.130;13.788;2024-02-26T05:02:24;6.47;;;5.80;;
15408;SDS011;7803;48.130;13.788;2024-02-26T05:05:26;6.63;;;5.95;;
15408;SDS011;7803;48.130;13.788;2024-02-26T05:08:29;6.43;;;5.75;;
15408;SDS011;7803;48.130;13.788;2024-02-26T05:11:33;6.82;;;6.22;;
15408;SDS011;7803;48.130;13.788;2024-02-26T05:14:35;6.78;;;6.18;;
15408;SDS011;7803;48.130;13.788;2024-02-26T05:17:37;7.20;;;6.50;;
15408;SDS011;7803;48.130;13.788;2024-02-26T05:20:39;7.20;;;6.50;;
15408;SDS011;7803;48.130;13.788;2024-02-26T05:23:43;7.03;;;6.40;;
15408;SDS011;7803;48.130;13.788;2024-02-26T05:26:45;7.50;;;6.80;;
15408;SDS011;7803;48.130;13.788;2024-02-26T05:29:47;7.82;;;7.03;;
15408;SDS011;7803;48.130;13.788;2024-02-26T05:32:49;7.78;;;6.97;;
15408;SDS011;7803;48.130;13.788;2024-02-26T05:35:51;7.22;;;6.53;;
15408;SDS011;7803;48.130;13.788;2024-02-26T05:38:55;7.10;;;6.40;;
15408;SDS011;7803;48.130;13.788;2024-02-26T05:41:57;7.35;;;6.65;;
15408;SDS011;7803;48.130;13.788;2024-02-26T05:44:59;7.25;;;6.55;;
15408;SDS011;7803;48.130;13.788;2024-02-26T05:48:06;6.93;;;6.32;;
15408;SDS011;7803;48.130;13.788;2024-02-26T05:51:09;7.13;;;6.43;;
15408;SDS011;7803;48.130;13.788;2024-02-26T05:54:12;7.00;;;6.30;;
15408;SDS011;7803;48.130;13.788;2024-02-26T05:57:15;7.13;;;6.43;;
15408;SDS011;7803;48.130;13.788;2024-02-26T06:00:18;7.82;;;7.00;;
15408;SDS011;7803;48.130;13.788;2024-02-26T06:03:21;7.93;;;7.13;;
15408;SDS011;7803;48.130;13.788;2024-02-26T06:06:23;7.35;;;6.65;;
15408;SDS011;7803;48.130;13.788;2024-02-26T06:09:26;6.50;;;5.90;;
15408;SDS011;7803;48.130;13.788;2024-02-26T06:12:28;6.80;;;6.20;;
15408;SDS011;7803;48.130;13.788;2024-02-26T06:15:30;7.18;;;6.53;;
15408;SDS011;7803;48.130;13.788;2024-02-26T06:18:32;7.03;;;6.32;;
15408;SDS011;7803;48.130;13.788;2024-02-26T06:21:34;7.13;;;6.43;;
15408;SDS011;7803;48.130;13.788;2024-02-26T06:24:38;6.75;;;6.13;;
15408;SDS011;7803;48.130;13.788;2024-02-26T06:27:40;7.50;;;6.72;;
15408;SDS011;7803;48.130;13.788;2024-02-26T06:30:42;7.05;;;6.30;;
15408;SDS011;7803;48.130;13.788;2024-02-26T06:33:44;6.95;;;6.25;;
15408;SDS011;7803;48.130;13.788;2024-02-26T06:36:46;7.15;;;6.45;;
15408;SDS011;7803;48.130;13.788;2024-02-26T06:39:49;6.93;;;6.22;;
15408;SDS011;7803;48.130;13.788;2024-02-26T06:42:52;6.88;;;6.18;;
15408;SDS011;7803;48.130;13.788;2024-02-26T06:45:54;6.55;;;5.90;;
15408;SDS011;7803;48.130;13.788;2024-02-26T06:48:55;6.97;;;6.28;;
15408;SDS011;7803;48.130;13.788;2024-02-26T06:51:57;7.57;;;6.03;;
15408;SDS011;7803;48.130;13.788;2024-02-26T06:55:01;6.88;;;6.15;;
15408;SDS011;7803;48.130;13.788;2024-02-26T06:58:03;6.55;;;5.60;;
15408;SDS011;7803;48.130;13.788;2024-02-26T07:01:05;6.22;;;5.63;;
15408;SDS011;7803;48.130;13.788;2024-02-26T07:04:08;6.85;;;6.10;;
15408;SDS011;7803;48.130;13.788;2024-02-26T07:07:11;6.85;;;6.13;;
15408;SDS011;7803;48.130;13.788;2024-02-26T07:10:14;6.53;;;5.80;;
15408;SDS011;7803;48.130;13.788;2024-02-26T07:13:16;6.60;;;6.00;;
15408;SDS011;7803;48.130;13.788;2024-02-26T07:16:18;6.38;;;5.78;;
15408;SDS011;7803;48.130;13.788;2024-02-26T07:19:21;6.15;;;5.55;;
15408;SDS011;7803;48.130;13.788;2024-02-26T07:22:23;6.25;;;5.65;;
15408;SDS011;7803;48.130;13.788;2024-02-26T07:25:26;6.10;;;5.50;;
15408;SDS011;7803;48.130;13.788;2024-02-26T07:28:28;8.55;;;7.47;;
15408;SDS011;7803;48.130;13.788;2024-02-26T07:31:30;8.15;;;7.32;;
15408;SDS011;7803;48.130;13.788;2024-02-26T07:34:32;7.40;;;6.70;;
15408;SDS011;7803;48.130;13.788;2024-02-26T07:37:35;7.10;;;6.43;;
15408;SDS011;7803;48.130;13.788;2024-02-26T07:40:39;7.40;;;6.70;;
15408;SDS011;7803;48.130;13.788;2024-02-26T07:43:41;7.60;;;6.90;;
15408;SDS011;7803;48.130;13.788;2024-02-26T07:46:43;7.40;;;6.60;;
15408;SDS011;7803;48.130;13.788;2024-02-26T07:49:45;7.28;;;6.53;;
15408;SDS011;7803;48.130;13.788;2024-02-26T07:52:47;7.07;;;6.35;;
15408;SDS011;7803;48.130;13.788;2024-02-26T07:55:52;6.70;;;6.00;;
15408;SDS011;7803;48.130;13.788;2024-02-26T07:58:54;7.47;;;6.75;;
15408;SDS011;7803;48.130;13.788;2024-02-26T08:01:56;7.05;;;6.35;;
15408;SDS011;7803;48.130;13.788;2024-02-26T08:04:58;7.07;;;6.38;;
15408;SDS011;7803;48.130;13.788;2024-02-26T08:08:00;6.93;;;6.22;;
15408;SDS011;7803;48.130;13.788;2024-02-26T08:11:03;7.15;;;6.45;;
15408;SDS011;7803;48.130;13.788;2024-02-26T08:14:06;7.07;;;6.38;;
15408;SDS011;7803;48.130;13.788;2024-02-26T08:17:07;7.00;;;6.30;;
15408;SDS011;7803;48.130;13.788;2024-02-26T08:20:10;6.55;;;5.80;;
15408;SDS011;7803;48.130;13.788;2024-02-26T08:23:13;7.05;;;6.35;;
15408;SDS011;7803;48.130;13.788;2024-02-26T08:26:16;6.65;;;6.00;;
15408;SDS011;7803;48.130;13.788;2024-02-26T08:29:20;6.38;;;5.78;;
15408;SDS011;7803;48.130;13.788;2024-02-26T08:32:22;6.50;;;5.82;;
15408;SDS011;7803;48.130;13.788;2024-02-26T08:35:24;6.60;;;6.00;;
15408;SDS011;7803;48.130;13.788;2024-02-26T08:38:26;6.47;;;5.75;;
15408;SDS011;7803;48.130;13.788;2024-02-26T08:41:29;6.47;;;5.88;;
15408;SDS011;7803;48.130;13.788;2024-02-26T08:44:31;6.30;;;5.72;;
15408;SDS011;7803;48.130;13.788;2024-02-26T08:47:33;6.72;;;6.03;;
15408;SDS011;7803;48.130;13.788;2024-02-26T08:50:35;6.55;;;5.93;;
15408;SDS011;7803;48.130;13.788;2024-02-26T08:53:37;6.30;;;5.70;;
15408;SDS011;7803;48.130;13.788;2024-02-26T08:56:41;5.75;;;5.20;;
15408;SDS011;7803;48.130;13.788;2024-02-26T08:59:43;6.10;;;5.50;;
15408;SDS011;7803;48.130;13.788;2024-02-26T09:02:45;6.03;;;5.43;;
15408;SDS011;7803;48.130;13.788;2024-02-26T09:05:47;6.75;;;5.85;;
15408;SDS011;7803;48.130;13.788;2024-02-26T09:08:49;6.30;;;5.70;;
15408;SDS011;7803;48.130;13.788;2024-02-26T09:11:52;5.90;;;5.30;;
15408;SDS011;7803;48.130;13.788;2024-02-26T09:14:55;5.78;;;5.05;;
15408;SDS011;7803;48.130;13.788;2024-02-26T09:17:57;6.22;;;5.63;;
15408;SDS011;7803;48.130;13.788;2024-02-26T09:20:59;5.65;;;5.13;;
15408;SDS011;7803;48.130;13.788;2024-02-26T09:24:05;6.13;;;5.50;;
15408;SDS011;7803;48.130;13.788;2024-02-26T09:27:08;6.32;;;5.70;;
15408;SDS011;7803;48.130;13.788;2024-02-26T09:30:11;5.97;;;5.38;;
15408;SDS011;7803;48.130;13.788;2024-02-26T09:33:13;6.28;;;5.47;;
15408;SDS011;7803;48.130;13.788;2024-02-26T09:36:15;6.80;;;6.00;;
15408;SDS011;7803;48.130;13.788;2024-02-26T09:39:17;6.90;;;6.20;;
15408;SDS011;7803;48.130;13.788;2024-02-26T09:42:23;7.32;;;6.63;;
15408;SDS011;7803;48.130;13.788;2024-02-26T09:45:27;8.27;;;6.88;;
15408;SDS011;7803;48.130;13.788;2024-02-26T09:48:31;8.63;;;7.53;;
15408;SDS011;7803;48.130;13.788;2024-02-26T09:51:35;8.68;;;7.60;;
15408;SDS011;7803;48.130;13.788;2024-02-26T09:54:37;8.98;;;8.07;;
15408;SDS011;7803;48.130;13.788;2024-02-26T09:57:42;9.07;;;8.18;;
15408;SDS011;7803;48.130;13.788;2024-02-26T10:00:47;9.45;;;8.43;;
15408;SDS011;7803;48.130;13.788;2024-02-26T10:03:56;10.82;;;9.48;;
15408;SDS011;7803;48.130;13.788;2024-02-26T10:06:59;10.85;;;9.75;;
15408;SDS011;7803;48.130;13.788;2024-02-26T10:10:03;11.45;;;10.25;;
15408;SDS011;7803;48.130;13.788;2024-02-26T10:13:07;12.30;;;10.45;;
15408;SDS011;7803;48.130;13.788;2024-02-26T10:16:11;13.13;;;11.02;;
15408;SDS011;7803;48.130;13.788;2024-02-26T10:19:24;14.00;;;11.43;;
15408;SDS011;7803;48.130;13.788;2024-02-26T10:22:27;12.77;;;11.27;;
15408;SDS011;7803;48.130;13.788;2024-02-26T10:25:29;13.52;;;12.10;;
15408;SDS011;7803;48.130;13.788;2024-02-26T10:28:33;14.98;;;12.63;;
15408;SDS011;7803;48.130;13.788;2024-02-26T10:31:35;15.95;;;13.32;;
15408;SDS011;7803;48.130;13.788;2024-02-26T10:34:37;14.63;;;13.02;;
15408;SDS011;7803;48.130;13.788;2024-02-26T10:37:41;14.30;;;12.90;;
15408;SDS011;7803;48.130;13.788;2024-02-26T10:40:43;15.55;;;13.65;;
15408;SDS011;7803;48.130;13.788;2024-02-26T10:43:47;16.15;;;14.45;;
15408;SDS011;7803;48.130;13.788;2024-02-26T10:46:49;17.77;;;15.30;;
15408;SDS011;7803;48.130;13.788;2024-02-26T10:49:51;16.73;;;14.93;;
15408;SDS011;7803;48.130;13.788;2024-02-26T10:52:53;17.50;;;15.63;;
15408;SDS011;7803;48.130;13.788;2024-02-26T10:55:57;18.52;;;16.63;;
15408;SDS011;7803;48.130;13.788;2024-02-26T10:59:04;19.00;;;16.60;;
15408;SDS011;7803;48.130;13.788;2024-02-26T11:02:10;19.17;;;17.17;;
15408;SDS011;7803;48.130;13.788;2024-02-26T11:05:14;20.63;;;17.23;;
15408;SDS011;7803;48.130;13.788;2024-02-26T11:08:17;20.33;;;18.10;;
15408;SDS011;7803;48.130;13.788;2024-02-26T11:11:20;19.73;;;17.63;;
15408;SDS011;7803;48.130;13.788;2024-02-26T11:14:24;20.10;;;17.70;;
15408;SDS011;7803;48.130;13.788;2024-02-26T11:17:27;20.30;;;18.20;;
15408;SDS011;7803;48.130;13.788;2024-02-26T11:20:31;21.13;;;18.92;;
15408;SDS011;7803;48.130;13.788;2024-02-26T11:23:34;20.92;;;18.73;;
15408;SDS011;7803;48.130;13.788;2024-02-26T11:26:39;21.50;;;19.20;;
15408;SDS011;7803;48.130;13.788;2024-02-26T11:29:48;21.88;;;19.55;;
15408;SDS011;7803;48.130;13.788;2024-02-26T11:32:52;20.88;;;18.77;;
15408;SDS011;7803;48.130;13.788;2024-02-26T11:35:54;21.38;;;19.08;;
15408;SDS011;7803;48.130;13.788;2024-02-26T11:38:57;21.35;;;19.15;;
15408;SDS011;7803;48.130;13.788;2024-02-26T11:42:04;20.98;;;18.65;;
15408;SDS011;7803;48.130;13.788;2024-02-26T11:45:21;21.27;;;19.05;;
15408;SDS011;7803;48.130;13.788;2024-02-26T11:48:49;21.90;;;19.60;;
15408;SDS011;7803;48.130;13.788;2024-02-26T11:51:51;20.80;;;18.65;;
15408;SDS011;7803;48.130;13.788;2024-02-26T11:54:56;22.17;;;19.35;;
15408;SDS011;7803;48.130;13.788;2024-02-26T11:57:58;21.85;;;19.55;;
15408;SDS011;7803;48.130;13.788;2024-02-26T12:01:03;20.95;;;18.83;;
15408;SDS011;7803;48.130;13.788;2024-02-26T12:04:06;21.20;;;18.98;;
15408;SDS011;7803;48.130;13.788;2024-02-26T12:07:08;21.05;;;18.95;;
15408;SDS011;7803;48.130;13.788;2024-02-26T12:10:20;22.13;;;19.77;;
15408;SDS011;7803;48.130;13.788;2024-02-26T12:13:29;21.17;;;18.98;;
15408;SDS011;7803;48.130;13.788;2024-02-26T12:16:36;21.02;;;18.85;;
15408;SDS011;7803;48.130;13.788;2024-02-26T12:19:38;20.50;;;18.30;;
15408;SDS011;7803;48.130;13.788;2024-02-26T12:22:40;20.50;;;18.42;;
15408;SDS011;7803;48.130;13.788;2024-02-26T12:25:45;20.67;;;18.58;;
15408;SDS011;7803;48.130;13.788;2024-02-26T12:28:48;20.42;;;18.23;;
15408;SDS011;7803;48.130;13.788;2024-02-26T12:31:51;19.25;;;17.25;;
15408;SDS011;7803;48.130;13.788;2024-02-26T12:34:53;20.00;;;17.90;;
15408;SDS011;7803;48.130;13.788;2024-02-26T12:37:55;20.20;;;18.10;;
15408;SDS011;7803;48.130;13.788;2024-02-26T12:40:57;19.55;;;17.52;;
15408;SDS011;7803;48.130;13.788;2024-02-26T12:44:00;19.30;;;17.30;;
15408;SDS011;7803;48.130;13.788;2024-02-26T12:47:04;19.48;;;17.48;;
15408;SDS011;7803;48.130;13.788;2024-02-26T12:50:06;18.95;;;17.05;;
15408;SDS011;7803;48.130;13.788;2024-02-26T12:53:09;19.20;;;17.30;;
15408;SDS011;7803;48.130;13.788;2024-02-26T12:56:12;18.33;;;16.52;;
15408;SDS011;7803;48.130;13.788;2024-02-26T12:59:15;18.55;;;16.65;;
15408;SDS011;7803;48.130;13.788;2024-02-26T13:02:18;18.63;;;16.73;;
15408;SDS011;7803;48.130;13.788;2024-02-26T13:05:20;18.45;;;16.55;;
15408;SDS011;7803;48.130;13.788;2024-02-26T13:08:24;18.50;;;16.50;;
15408;SDS011;7803;48.130;13.788;2024-02-26T13:11:26;17.58;;;15.77;;
15408;SDS011;7803;48.130;13.788;2024-02-26T13:14:29;18.00;;;16.20;;
15408;SDS011;7803;48.130;13.788;2024-02-26T13:17:33;17.08;;;15.27;;
15408;SDS011;7803;48.130;13.788;2024-02-26T13:20:35;16.85;;;15.15;;
15408;SDS011;7803;48.130;13.788;2024-02-26T13:23:37;17.27;;;15.48;;
15408;SDS011;7803;48.130;13.788;2024-02-26T13:26:39;16.45;;;14.75;;
15408;SDS011;7803;48.130;13.788;2024-02-26T13:29:41;16.80;;;15.10;;
15408;SDS011;7803;48.130;13.788;2024-02-26T13:32:44;16.25;;;14.65;;
15408;SDS011;7803;48.130;13.788;2024-02-26T13:35:47;16.10;;;14.50;;
15408;SDS011;7803;48.130;13.788;2024-02-26T13:38:52;15.93;;;14.27;;
15408;SDS011;7803;48.130;13.788;2024-02-26T13:41:54;15.50;;;14.00;;
15408;SDS011;7803;48.130;13.788;2024-02-26T13:44:57;16.52;;;14.82;;
15408;SDS011;7803;48.130;13.788;2024-02-26T13:48:01;14.90;;;13.40;;
15408;SDS011;7803;48.130;13.788;2024-02-26T13:51:04;15.20;;;13.63;;
15408;SDS011;7803;48.130;13.788;2024-02-26T13:54:06;14.85;;;13.35;;
15408;SDS011;7803;48.130;13.788;2024-02-26T13:57:09;14.73;;;13.30;;
15408;SDS011;7803;48.130;13.788;2024-02-26T14:00:11;14.43;;;13.02;;
15408;SDS011;7803;48.130;13.788;2024-02-26T14:03:15;13.95;;;12.55;;
15408;SDS011;7803;48.130;13.788;2024-02-26T14:06:19;15.15;;;13.65;;
15408;SDS011;7803;48.130;13.788;2024-02-26T14:09:21;14.07;;;12.57;;
15408;SDS011;7803;48.130;13.788;2024-02-26T14:12:23;14.00;;;12.60;;
15408;SDS011;7803;48.130;13.788;2024-02-26T14:15:25;13.15;;;11.90;;
15408;SDS011;7803;48.130;13.788;2024-02-26T14:18:28;13.50;;;12.15;;
15408;SDS011;7803;48.130;13.788;2024-02-26T14:21:30;13.07;;;11.77;;
15408;SDS011;7803;48.130;13.788;2024-02-26T14:24:32;13.15;;;11.85;;
15408;SDS011;7803;48.130;13.788;2024-02-26T14:27:36;13.05;;;11.75;;
15408;SDS011;7803;48.130;13.788;2024-02-26T14:30:38;13.10;;;11.80;;
15408;SDS011;7803;48.130;13.788;2024-02-26T14:33:42;12.65;;;11.43;;
15408;SDS011;7803;48.130;13.788;2024-02-26T14:36:44;12.82;;;11.52;;
15408;SDS011;7803;48.130;13.788;2024-02-26T14:39:46;11.93;;;10.73;;
15408;SDS011;7803;48.130;13.788;2024-02-26T14:42:51;12.00;;;10.80;;
15408;SDS011;7803;48.130;13.788;2024-02-26T14:45:53;11.60;;;10.40;;
15408;SDS011;7803;48.130;13.788;2024-02-26T14:48:57;12.23;;;11.02;;
15408;SDS011;7803;48.130;13.788;2024-02-26T14:51:59;10.95;;;9.85;;
15408;SDS011;7803;48.130;13.788;2024-02-26T14:55:03;11.18;;;10.07;;
15408;SDS011;7803;48.130;13.788;2024-02-26T14:58:06;11.32;;;10.23;;
15408;SDS011;7803;48.130;13.788;2024-02-26T15:01:10;11.98;;;10.68;;
15408;SDS011;7803;48.130;13.788;2024-02-26T15:04:14;11.05;;;9.95;;
15408;SDS011;7803;48.130;13.788;2024-02-26T15:07:16;11.77;;;10.57;;
15408;SDS011;7803;48.130;13.788;2024-02-26T15:10:20;11.23;;;10.02;;
15408;SDS011;7803;48.130;13.788;2024-02-26T15:13:22;11.18;;;10.07;;
15408;SDS011;7803;48.130;13.788;2024-02-26T15:16:24;10.63;;;9.63;;
15408;SDS011;7803;48.130;13.788;2024-02-26T15:19:27;10.23;;;9.32;;
15408;SDS011;7803;48.130;13.788;2024-02-26T15:22:29;10.63;;;9.63;;
15408;SDS011;7803;48.130;13.788;2024-02-26T15:25:31;10.65;;;9.55;;
15408;SDS011;7803;48.130;13.788;2024-02-26T15:28:33;9.60;;;8.63;;
15408;SDS011;7803;48.130;13.788;2024-02-26T15:31:35;10.35;;;9.20;;
15408;SDS011;7803;48.130;13.788;2024-02-26T15:34:38;9.52;;;8.63;;
15408;SDS011;7803;48.130;13.788;2024-02-26T15:37:40;9.88;;;8.88;;
15408;SDS011;7803;48.130;13.788;2024-02-26T15:40:42;9.60;;;8.70;;
15408;SDS011;7803;48.130;13.788;2024-02-26T15:43:46;9.57;;;8.68;;
15408;SDS011;7803;48.130;13.788;2024-02-26T15:46:48;9.68;;;8.68;;
15408;SDS011;7803;48.130;13.788;2024-02-26T15:49:52;9.35;;;8.45;;
15408;SDS011;7803;48.130;13.788;2024-02-26T15:52:54;9.55;;;8.55;;
15408;SDS011;7803;48.130;13.788;2024-02-26T15:55:56;9.38;;;8.48;;
15408;SDS011;7803;48.130;13.788;2024-02-26T15:58:59;9.15;;;8.25;;
15408;SDS011;7803;48.130;13.788;2024-02-26T16:02:01;9.18;;;8.27;;
15408;SDS011;7803;48.130;13.788;2024-02-26T16:05:05;8.65;;;7.38;;
15408;SDS011;7803;48.130;13.788;2024-02-26T16:08:12;8.32;;;7.50;;
15408;SDS011;7803;48.130;13.788;2024-02-26T16:11:20;9.18;;;8.00;;
15408;SDS011;7803;48.130;13.788;2024-02-26T16:14:24;8.18;;;7.40;;
15408;SDS011;7803;48.130;13.788;2024-02-26T16:17:35;8.23;;;7.43;;
15408;SDS011;7803;48.130;13.788;2024-02-26T16:20:41;8.57;;;7.78;;
15408;SDS011;7803;48.130;13.788;2024-02-26T16:23:43;8.27;;;7.43;;
15408;SDS011;7803;48.130;13.788;2024-02-26T16:26:45;7.53;;;6.82;;
15408;SDS011;7803;48.130;13.788;2024-02-26T16:29:47;8.40;;;7.28;;
15408;SDS011;7803;48.130;13.788;2024-02-26T16:32:49;7.50;;;6.80;;
15408;SDS011;7803;48.130;13.788;2024-02-26T16:35:52;7.35;;;6.65;;
15408;SDS011;7803;48.130;13.788;2024-02-26T16:38:55;7.05;;;6.35;;
15408;SDS011;7803;48.130;13.788;2024-02-26T16:41:56;7.72;;;6.88;;
15408;SDS011;7803;48.130;13.788;2024-02-26T16:44:58;7.55;;;6.70;;
15408;SDS011;7803;48.130;13.788;2024-02-26T16:48:00;7.35;;;6.65;;
15408;SDS011;7803;48.130;13.788;2024-02-26T16:51:04;7.50;;;6.80;;
15408;SDS011;7803;48.130;13.788;2024-02-26T16:54:06;6.97;;;6.38;;
15408;SDS011;7803;48.130;13.788;2024-02-26T16:57:08;7.43;;;6.72;;
15408;SDS011;7803;48.130;13.788;2024-02-26T17:00:11;6.88;;;6.20;;
15408;SDS011;7803;48.130;13.788;2024-02-26T17:03:16;6.63;;;6.03;;
15408;SDS011;7803;48.130;13.788;2024-02-26T17:06:19;7.28;;;6.50;;
15408;SDS011;7803;48.130;13.788;2024-02-26T17:09:23;6.78;;;6.13;;
15408;SDS011;7803;48.130;13.788;2024-02-26T17:12:25;7.22;;;6.30;;
15408;SDS011;7803;48.130;13.788;2024-02-26T17:15:27;6.78;;;6.07;;
15408;SDS011;7803;48.130;13.788;2024-02-26T17:18:29;6.50;;;5.88;;
15408;SDS011;7803;48.130;13.788;2024-02-26T17:21:32;6.55;;;5.95;;
15408;SDS011;7803;48.130;13.788;2024-02-26T17:24:34;6.65;;;6.05;;
15408;SDS011;7803;48.130;13.788;2024-02-26T17:27:37;6.30;;;5.70;;
15408;SDS011;7803;48.130;13.788;2024-02-26T17:30:39;6.45;;;5.85;;
15408;SDS011;7803;48.130;13.788;2024-02-26T17:33:41;5.97;;;5.40;;
15408;SDS011;7803;48.130;13.788;2024-02-26T17:36:44;6.70;;;6.00;;
15408;SDS011;7803;48.130;13.788;2024-02-26T17:39:46;6.60;;;5.82;;
15408;SDS011;7803;48.130;13.788;2024-02-26T17:42:48;6.10;;;5.50;;
15408;SDS011;7803;48.130;13.788;2024-02-26T17:45:50;5.60;;;5.10;;
15408;SDS011;7803;48.130;13.788;2024-02-26T17:48:52;6.00;;;5.40;;
15408;SDS011;7803;48.130;13.788;2024-02-26T17:51:55;5.90;;;5.30;;
15408;SDS011;7803;48.130;13.788;2024-02-26T17:54:57;5.82;;;5.32;;
15408;SDS011;7803;48.130;13.788;2024-02-26T17:57:59;5.88;;;5.38;;
15408;SDS011;7803;48.130;13.788;2024-02-26T18:01:02;5.40;;;4.90;;
15408;SDS011;7803;48.130;13.788;2024-02-26T18:04:04;5.43;;;4.93;;
15408;SDS011;7803;48.130;13.788;2024-02-26T18:07:07;5.63;;;5.03;;